TimeCDT,TemperatureF,Dew PointF,Humidity,Sea Level PressureIn,VisibilityMPH,Wind Direction,Wind SpeedMPH,Gust SpeedMPH,PrecipitationIn,Events,Conditions,WindDirDegrees,DateUTC
12:15 AM,57.0,44.2,62,30.25,10.0,ENE,6.9,-,N/A,,Clear,70,2013-05-24 05:15:00
12:35 AM,57.2,44.1,62,30.26,10.0,ENE,5.8,-,N/A,,Clear,70,2013-05-24 05:35:00
12:55 AM,56.3,44.2,64,30.25,10.0,East,8.1,-,N/A,,Clear,80,2013-05-24 05:55:00
1:15 AM,56.3,44.1,64,30.24,10.0,ENE,9.2,-,N/A,,Clear,70,2013-05-24 06:15:00
1:35 AM,55.9,44.1,64,30.25,10.0,East,5.8,-,N/A,,Clear,90,2013-05-24 06:35:00
1:55 AM,54.7,44.2,68,30.26,10.0,East,5.8,-,N/A,,Clear,100,2013-05-24 06:55:00
2:15 AM,54.9,44.2,67,30.24,10.0,East,9.2,-,N/A,,Clear,80,2013-05-24 07:15:00
2:35 AM,54.7,44.6,69,30.24,10.0,East,8.1,-,N/A,,Clear,80,2013-05-24 07:35:00
2:55 AM,54.1,44.6,70,30.25,10.0,East,5.8,-,N/A,,Clear,90,2013-05-24 07:55:00
3:15 AM,52.9,44.6,73,30.26,10.0,East,8.1,-,N/A,,Clear,100,2013-05-24 08:15:00
3:35 AM,52.7,44.8,74,30.25,10.0,East,6.9,-,N/A,,Clear,100,2013-05-24 08:35:00
3:55 AM,52.7,45.0,75,30.25,10.0,East,6.9,-,N/A,,Clear,100,2013-05-24 08:55:00
4:15 AM,52.7,45.0,75,30.24,10.0,East,8.1,-,N/A,,Clear,100,2013-05-24 09:15:00
4:35 AM,52.3,45.0,76,30.26,10.0,SE,5.8,-,N/A,,Clear,140,2013-05-24 09:35:00
4:55 AM,50.5,45.0,81,30.27,10.0,SE,6.9,-,N/A,,Clear,140,2013-05-24 09:55:00
5:15 AM,50.9,45.1,81,30.27,10.0,SE,8.1,-,N/A,,Clear,130,2013-05-24 10:15:00
5:35 AM,52.0,45.3,78,30.27,10.0,ESE,8.1,-,N/A,,Clear,110,2013-05-24 10:35:00
5:55 AM,52.5,45.3,76,30.27,10.0,ESE,9.2,-,N/A,,Scattered Clouds,110,2013-05-24 10:55:00
6:15 AM,52.2,45.1,77,30.28,10.0,ESE,8.1,-,N/A,,Clear,120,2013-05-24 11:15:00
6:35 AM,52.9,45.5,76,30.28,10.0,SE,9.2,-,N/A,,Scattered Clouds,130,2013-05-24 11:35:00
6:55 AM,54.5,45.7,72,30.28,10.0,ESE,11.5,-,N/A,,Mostly Cloudy,120,2013-05-24 11:55:00
7:15 AM,54.3,45.7,73,30.28,10.0,ESE,11.5,17.3,N/A,,Overcast,120,2013-05-24 12:15:00
7:35 AM,54.5,46.2,74,30.28,10.0,ESE,11.5,-,N/A,,Scattered Clouds,120,2013-05-24 12:35:00
7:55 AM,55.6,46.8,72,30.29,10.0,ESE,9.2,-,N/A,,Scattered Clouds,120,2013-05-24 12:55:00
8:15 AM,56.5,47.8,73,30.29,10.0,SE,10.4,-,N/A,,Scattered Clouds,130,2013-05-24 13:15:00
8:35 AM,57.2,48.4,72,30.28,10.0,SE,9.2,-,N/A,,Clear,130,2013-05-24 13:35:00
8:55 AM,58.3,49.3,72,30.28,10.0,SE,10.4,-,N/A,,Scattered Clouds,130,2013-05-24 13:55:00
9:15 AM,59.9,50.0,70,30.28,10.0,SE,9.2,-,N/A,,Scattered Clouds,140,2013-05-24 14:15:00
9:35 AM,61.0,50.4,68,30.28,10.0,SE,10.4,-,N/A,,Scattered Clouds,130,2013-05-24 14:35:00
9:55 AM,62.8,50.7,65,30.27,10.0,SE,12.7,-,N/A,,Scattered Clouds,130,2013-05-24 14:55:00
10:15 AM,64.9,51.1,61,30.26,10.0,SE,18.4,23.0,N/A,,Scattered Clouds,140,2013-05-24 15:15:00
10:35 AM,66.6,49.3,54,30.23,10.0,SE,19.6,27.6,N/A,,Scattered Clouds,140,2013-05-24 15:35:00
10:55 AM,66.9,50.0,54,30.24,10.0,SSE,17.3,25.3,N/A,,Clear,150,2013-05-24 15:55:00
11:15 AM,68.2,49.5,51,30.23,10.0,SE,17.3,25.3,N/A,,Clear,140,2013-05-24 16:15:00
11:35 AM,68.7,49.3,50,30.23,10.0,SE,18.4,24.2,N/A,,Clear,130,2013-05-24 16:35:00
11:55 AM,69.1,49.6,50,30.23,10.0,SE,21.9,26.5,N/A,,Scattered Clouds,140,2013-05-24 16:55:00
12:15 PM,69.3,50.4,51,30.24,10.0,SSE,17.3,25.3,N/A,,Scattered Clouds,160,2013-05-24 17:15:00
12:35 PM,69.3,50.2,51,30.23,10.0,SSE,18.4,27.6,N/A,,Mostly Cloudy,160,2013-05-24 17:35:00
12:55 PM,70.2,51.3,51,30.23,10.0,SSE,17.3,27.6,N/A,,Overcast,150,2013-05-24 17:55:00
1:15 PM,70.3,50.4,49,30.22,10.0,SSE,19.6,28.8,N/A,,Overcast,160,2013-05-24 18:15:00
1:35 PM,70.0,50.2,49,30.21,10.0,SSE,19.6,25.3,N/A,,Overcast,160,2013-05-24 18:35:00
1:55 PM,69.3,50.0,50,30.21,10.0,SSE,15.0,24.2,N/A,,Overcast,160,2013-05-24 18:55:00
2:15 PM,69.1,49.5,50,30.20,10.0,SSE,15.0,21.9,N/A,,Overcast,150,2013-05-24 19:15:00
2:35 PM,70.0,49.1,47,30.19,10.0,SSE,16.1,-,N/A,,Overcast,150,2013-05-24 19:35:00
2:55 PM,71.6,48.9,45,30.17,10.0,SE,19.6,28.8,N/A,,Mostly Cloudy,140,2013-05-24 19:55:00
3:15 PM,71.8,47.7,42,30.16,10.0,SE,21.9,28.8,N/A,,Mostly Cloudy,140,2013-05-24 20:15:00
3:35 PM,73.0,48.2,41,30.14,10.0,SE,19.6,25.3,N/A,,Mostly Cloudy,140,2013-05-24 20:35:00
3:55 PM,72.0,48.6,43,30.13,10.0,SE,19.6,27.6,N/A,,Scattered Clouds,140,2013-05-24 20:55:00
4:15 PM,73.6,50.7,45,30.11,10.0,ESE,18.4,24.2,N/A,,Scattered Clouds,120,2013-05-24 21:15:00
4:35 PM,74.8,49.6,41,30.09,10.0,SE,19.6,31.1,N/A,,Clear,140,2013-05-24 21:35:00
4:55 PM,75.4,50.5,42,30.09,10.0,SSE,16.1,21.9,N/A,,Clear,150,2013-05-24 21:55:00
5:15 PM,73.8,49.1,42,30.08,10.0,SSE,18.4,28.8,N/A,,Clear,160,2013-05-24 22:15:00
5:35 PM,73.9,49.8,43,30.08,10.0,SE,16.1,28.8,N/A,,Clear,140,2013-05-24 22:35:00
5:55 PM,74.7,49.6,41,30.06,10.0,SE,19.6,26.5,N/A,Thunderstorm,Clear,130,2013-05-24 22:55:00
6:15 PM,73.9,50.2,43,30.04,10.0,SE,23.0,29.9,N/A,,Clear,130,2013-05-24 23:15:00
6:35 PM,73.9,50.2,43,30.02,10.0,SE,18.4,25.3,N/A,,Clear,130,2013-05-24 23:35:00
6:55 PM,73.6,50.0,43,30.02,10.0,SE,21.9,-,N/A,,Clear,140,2013-05-24 23:55:00
7:15 PM,73.6,50.5,44,30.04,10.0,SE,16.1,21.9,N/A,,Clear,140,2013-05-25 00:15:00
7:35 PM,72.7,50.9,46,30.04,10.0,SSE,12.7,23.0,N/A,,Clear,150,2013-05-25 00:35:00
7:55 PM,72.5,51.1,47,30.05,10.0,SSE,13.8,19.6,N/A,,Clear,160,2013-05-25 00:55:00
8:15 PM,71.6,50.5,47,30.04,10.0,SE,13.8,20.7,N/A,,Clear,140,2013-05-25 01:15:00
8:35 PM,71.1,50.7,49,30.06,10.0,SSE,8.1,19.6,N/A,,Scattered Clouds,150,2013-05-25 01:35:00
8:55 PM,70.9,51.1,49,30.08,10.0,South,4.6,-,N/A,,Mostly Cloudy,170,2013-05-25 01:55:00
9:15 PM,70.2,51.8,52,30.09,10.0,SE,4.6,-,N/A,,Overcast,140,2013-05-25 02:15:00
9:35 PM,70.2,51.8,52,30.10,10.0,SE,9.2,-,N/A,,Overcast,130,2013-05-25 02:35:00
9:55 PM,70.2,51.8,52,30.11,10.0,SE,11.5,-,N/A,,Overcast,130,2013-05-25 02:55:00
10:15 PM,70.0,51.8,52,30.12,10.0,SE,12.7,19.6,N/A,,Overcast,130,2013-05-25 03:15:00
10:35 PM,69.8,51.8,53,30.12,10.0,ESE,9.2,-,N/A,,Overcast,120,2013-05-25 03:35:00
10:55 PM,69.1,51.1,53,30.12,10.0,ESE,11.5,-,N/A,,Overcast,110,2013-05-25 03:55:00
11:15 PM,68.5,50.9,53,30.13,10.0,ESE,10.4,-,N/A,,Overcast,110,2013-05-25 04:15:00
11:35 PM,67.6,50.7,55,30.12,10.0,ESE,11.5,-,N/A,,Overcast,110,2013-05-25 04:35:00
11:55 PM,67.1,50.9,56,30.11,10.0,ESE,10.4,16.1,N/A,,Overcast,110,2013-05-25 04:55:00